Time;durP1;ratioP1;P1;durP2;ratioP2;P2;SDS_P1;SDS_P2;PMS_P1;PMS_P2;Temp;Humidity;BMP_temperature;BMP_pressure;BME280_temperature;BME280_humidity;BME280_pressure;Samples;Min_cycle;Max_cycle;Signal;HPM_P1;HPM_P2
2023/03/04 00:02:26;;;;;;;21.60;4.70;;;;;;;;;;5050419;28;20439;-40
2023/03/04 00:04:53;;;;;;;24.08;4.93;;;;;;;;;;5048885;28;20722;-40
2023/03/04 00:07:20;;;;;;;21.65;4.68;;;;;;;;;;5050406;28;20367;-36
2023/03/04 00:09:47;;;;;;;20.27;4.43;;;;;;;;;;5042377;28;20445;-39
2023/03/04 00:12:14;;;;;;;28.30;4.38;;;;;;;;;;5044617;28;20029;-39
2023/03/04 00:14:41;;;;;;;20.52;4.53;;;;;;;;;;5047062;28;20483;-36
2023/03/04 00:17:08;;;;;;;23.77;4.30;;;;;;;;;;5049464;28;20055;-35
2023/03/04 00:19:38;;;;;;;24.63;4.18;;;;;;;;;;5033252;28;20063;-37
2023/03/04 00:22:05;;;;;;;25.30;4.30;;;;;;;;;;5050941;28;20565;-39
2023/03/04 00:24:32;;;;;;;29.80;4.75;;;;;;;;;;5046201;28;20114;-38
2023/03/04 00:26:59;;;;;;;40.30;5.80;;;;;;;;;;5046797;28;20092;-40
2023/03/04 00:29:26;;;;;;;19.15;4.43;;;;;;;;;;5052597;28;20123;-37
2023/03/04 00:31:53;;;;;;;19.98;4.35;;;;;;;;;;5051859;28;20037;-40
2023/03/04 00:34:20;;;;;;;27.20;4.00;;;;;;;;;;5051140;28;20071;-35
2023/03/04 00:36:47;;;;;;;24.08;3.95;;;;;;;;;;5049628;28;20664;-36
2023/03/04 00:39:14;;;;;;;42.92;4.97;;;;;;;;;;5049103;28;20091;-37
2023/03/04 00:41:42;;;;;;;29.13;4.65;;;;;;;;;;5051395;28;20029;-39
2023/03/04 00:44:09;;;;;;;23.15;4.20;;;;;;;;;;5043652;28;20029;-36
2023/03/04 00:46:36;;;;;;;14.10;3.47;;;;;;;;;;5042726;28;20018;-35
2023/03/04 00:49:03;;;;;;;17.23;3.53;;;;;;;;;;5029751;28;20125;-34
2023/03/04 00:51:30;;;;;;;25.08;4.05;;;;;;;;;;5030751;28;20127;-36
2023/03/04 00:53:57;;;;;;;19.33;3.92;;;;;;;;;;5030057;28;20113;-34
2023/03/04 00:56:24;;;;;;;19.80;3.97;;;;;;;;;;5028671;28;20126;-35
2023/03/04 00:58:51;;;;;;;25.27;4.20;;;;;;;;;;5031726;28;20081;-34
2023/03/04 01:01:18;;;;;;;27.73;4.20;;;;;;;;;;5031442;28;20402;-35
2023/03/04 01:03:45;;;;;;;24.67;3.80;;;;;;;;;;5031081;28;20021;-34
2023/03/04 01:06:12;;;;;;;21.30;3.70;;;;;;;;;;5029709;28;20032;-35
2023/03/04 01:08:39;;;;;;;24.98;4.28;;;;;;;;;;5023236;28;20021;-35
2023/03/04 01:11:06;;;;;;;30.40;4.28;;;;;;;;;;5030915;28;20439;-36
2023/03/04 01:13:33;;;;;;;24.48;5.00;;;;;;;;;;5031308;28;20032;-35
2023/03/04 01:16:00;;;;;;;33.60;10.25;;;;;;;;;;5031282;28;20029;-36
2023/03/04 01:18:27;;;;;;;75.38;20.27;;;;;;;;;;5031624;28;20117;-36
2023/03/04 01:20:54;;;;;;;117.32;37.33;;;;;;;;;;5031315;28;20411;-36
2023/03/04 01:23:21;;;;;;;150.00;47.58;;;;;;;;;;5031720;28;20044;-35
2023/03/04 01:25:48;;;;;;;151.27;51.05;;;;;;;;;;5030468;28;20049;-35
2023/03/04 01:28:15;;;;;;;146.73;56.38;;;;;;;;;;5031072;28;20060;-36
2023/03/04 01:30:42;;;;;;;141.13;54.35;;;;;;;;;;5030872;28;20060;-35
2023/03/04 01:33:09;;;;;;;136.82;52.42;;;;;;;;;;5013638;28;20037;-36
2023/03/04 01:35:36;;;;;;;117.55;48.50;;;;;;;;;;5031295;28;20037;-37
2023/03/04 01:38:03;;;;;;;114.07;46.67;;;;;;;;;;5031044;28;20041;-38
2023/03/04 01:40:31;;;;;;;104.68;44.13;;;;;;;;;;5030622;28;20098;-38
2023/03/04 01:42:58;;;;;;;114.85;44.42;;;;;;;;;;5030354;28;20029;-37
2023/03/04 01:45:24;;;;;;;108.95;42.95;;;;;;;;;;5030773;28;20041;-36
2023/03/04 01:47:52;;;;;;;103.80;40.47;;;;;;;;;;5030289;28;20041;-39
2023/03/04 01:50:21;;;;;;;104.43;41.50;;;;;;;;;;5030305;28;20068;-36
2023/03/04 01:52:48;;;;;;;106.38;39.58;;;;;;;;;;5028918;28;20033;-37
2023/03/04 01:55:19;;;;;;;88.10;37.33;;;;;;;;;;5030283;28;20034;-36
2023/03/04 01:57:48;;;;;;;89.87;38.23;;;;;;;;;;5030054;28;20025;-37
2023/03/04 02:00:20;;;;;;;89.07;35.30;;;;;;;;;;5028916;28;20319;-36
2023/03/04 02:02:48;;;;;;;89.63;35.73;;;;;;;;;;5029661;28;20485;-38
2023/03/04 02:05:15;;;;;;;91.50;35.28;;;;;;;;;;5024919;28;20261;-37
2023/03/04 02:07:42;;;;;;;87.20;31.02;;;;;;;;;;5021664;28;20025;-38
2023/03/04 02:10:10;;;;;;;75.38;29.48;;;;;;;;;;5022393;28;20069;-38
2023/03/04 02:12:37;;;;;;;68.85;24.35;;;;;;;;;;5030011;28;20029;-33
2023/03/04 02:15:04;;;;;;;49.08;15.05;;;;;;;;;;5030328;28;20033;-35
2023/03/04 02:17:32;;;;;;;26.13;7.57;;;;;;;;;;5010829;28;20026;-33
2023/03/04 02:20:02;;;;;;;17.83;4.63;;;;;;;;;;5015705;28;20030;-35
2023/03/04 02:22:29;;;;;;;24.38;3.83;;;;;;;;;;5020273;28;20084;-33
2023/03/04 02:25:08;;;;;;;25.15;3.72;;;;;;;;;;5028022;28;20388;-33
2023/03/04 02:27:35;;;;;;;24.38;3.30;;;;;;;;;;5024274;28;20036;-33
2023/03/04 02:30:02;;;;;;;21.30;3.70;;;;;;;;;;5018630;28;20423;-33
2023/03/04 02:32:29;;;;;;;18.55;2.83;;;;;;;;;;5022982;28;20042;-34
2023/03/04 02:34:56;;;;;;;19.83;2.85;;;;;;;;;;5019393;28;20038;-35
2023/03/04 02:37:23;;;;;;;15.77;2.45;;;;;;;;;;5018577;28;20031;-33
2023/03/04 02:39:50;;;;;;;19.90;3.05;;;;;;;;;;5020289;28;20136;-35
2023/03/04 02:42:17;;;;;;;124.25;16.20;;;;;;;;;;5001187;28;20479;-33
2023/03/04 02:44:47;;;;;;;86.03;10.98;;;;;;;;;;5017994;28;20602;-33
2023/03/04 02:47:17;;;;;;;88.97;10.48;;;;;;;;;;5019742;28;20030;-33
2023/03/04 02:49:44;;;;;;;40.80;4.22;;;;;;;;;;5020047;28;20026;-35
2023/03/04 02:52:17;;;;;;;21.15;2.88;;;;;;;;;;5020290;28;20041;-35
2023/03/04 02:54:44;;;;;;;19.15;2.50;;;;;;;;;;5020241;28;20104;-33
2023/03/04 02:57:12;;;;;;;11.65;1.77;;;;;;;;;;5021063;28;20033;-34
2023/03/04 02:59:39;;;;;;;14.52;1.50;;;;;;;;;;5016812;28;20030;-34
2023/03/04 03:02:07;;;;;;;15.18;2.10;;;;;;;;;;5013744;28;20025;-34
2023/03/04 03:04:36;;;;;;;17.67;1.85;;;;;;;;;;5010422;28;20041;-35
2023/03/04 03:07:03;;;;;;;21.13;2.08;;;;;;;;;;5010481;28;20061;-35
2023/03/04 03:09:30;;;;;;;15.38;1.67;;;;;;;;;;5010080;28;20034;-35
2023/03/04 03:11:57;;;;;;;43.05;3.35;;;;;;;;;;5012584;28;20034;-35
2023/03/04 03:14:24;;;;;;;26.60;3.05;;;;;;;;;;5014490;28;20116;-34
2023/03/04 03:16:51;;;;;;;24.92;2.28;;;;;;;;;;5014621;28;20033;-35
2023/03/04 03:19:18;;;;;;;40.63;6.35;;;;;;;;;;5014234;28;20104;-35
2023/03/04 03:21:45;;;;;;;73.53;9.70;;;;;;;;;;5014372;28;20029;-35
2023/03/04 03:24:12;;;;;;;41.88;9.90;;;;;;;;;;5014179;28;20105;-35
2023/03/04 03:26:39;;;;;;;54.53;8.98;;;;;;;;;;5014349;28;20372;-35
2023/03/04 03:29:06;;;;;;;38.22;5.25;;;;;;;;;;5013974;28;20583;-34
2023/03/04 03:31:33;;;;;;;87.70;8.65;;;;;;;;;;5013928;28;20084;-35
2023/03/04 03:34:00;;;;;;;67.75;6.45;;;;;;;;;;5014283;28;20459;-35
2023/03/04 03:36:27;;;;;;;82.10;5.47;;;;;;;;;;5014018;28;20030;-34
2023/03/04 03:38:54;;;;;;;49.05;4.57;;;;;;;;;;5014055;28;20435;-35
2023/03/04 03:41:21;;;;;;;67.85;6.13;;;;;;;;;;4996065;28;20030;-35
2023/03/04 03:43:48;;;;;;;67.22;6.05;;;;;;;;;;5013677;28;20491;-35
2023/03/04 03:46:15;;;;;;;88.75;6.10;;;;;;;;;;5013830;28;20045;-35
2023/03/04 03:48:42;;;;;;;51.47;4.43;;;;;;;;;;5013720;28;20026;-34
2023/03/04 03:51:09;;;;;;;61.38;5.18;;;;;;;;;;5013486;28;20038;-35
2023/03/04 03:53:36;;;;;;;33.38;3.90;;;;;;;;;;5013801;28;20038;-34
2023/03/04 03:56:04;;;;;;;32.45;4.50;;;;;;;;;;5013769;28;20080;-35
2023/03/04 03:58:30;;;;;;;39.63;3.35;;;;;;;;;;5013704;28;20030;-35
2023/03/04 04:00:57;;;;;;;50.80;4.57;;;;;;;;;;5013462;28;20133;-34
2023/03/04 04:03:24;;;;;;;61.40;4.70;;;;;;;;;;5013498;28;20101;-34
2023/03/04 04:05:51;;;;;;;59.88;5.05;;;;;;;;;;5013527;28;20085;-34
2023/03/04 04:08:19;;;;;;;69.82;5.55;;;;;;;;;;5013518;28;20042;-34
2023/03/04 04:10:45;;;;;;;38.83;4.15;;;;;;;;;;5012964;28;20034;-35
2023/03/04 04:13:12;;;;;;;36.83;4.35;;;;;;;;;;5013489;28;20030;-35
2023/03/04 04:15:40;;;;;;;51.30;3.83;;;;;;;;;;5013403;28;20022;-34
2023/03/04 04:18:07;;;;;;;31.70;3.03;;;;;;;;;;5013487;28;20057;-35
2023/03/04 04:20:34;;;;;;;34.60;3.67;;;;;;;;;;5013343;28;20492;-35
2023/03/04 04:23:01;;;;;;;38.75;3.08;;;;;;;;;;5012046;28;20022;-34
2023/03/04 04:25:29;;;;;;;35.22;3.40;;;;;;;;;;5012663;28;20052;-35
2023/03/04 04:27:56;;;;;;;32.80;3.55;;;;;;;;;;5013054;28;20567;-35
2023/03/04 04:30:22;;;;;;;45.40;4.18;;;;;;;;;;5012696;28;20042;-34
2023/03/04 04:32:49;;;;;;;40.30;4.82;;;;;;;;;;5012991;28;20120;-35
2023/03/04 04:35:16;;;;;;;36.22;4.03;;;;;;;;;;5012903;28;20025;-34
2023/03/04 04:37:43;;;;;;;114.53;12.40;;;;;;;;;;5012888;28;20030;-34
2023/03/04 04:40:11;;;;;;;48.95;5.22;;;;;;;;;;5012851;28;20030;-34
2023/03/04 04:42:38;;;;;;;42.08;3.63;;;;;;;;;;5012736;28;20528;-34
2023/03/04 04:45:05;;;;;;;40.70;3.90;;;;;;;;;;5012665;28;20388;-34
2023/03/04 04:47:32;;;;;;;51.67;5.65;;;;;;;;;;4995431;28;20022;-34
2023/03/04 04:49:59;;;;;;;45.38;4.70;;;;;;;;;;5012592;28;20361;-34
2023/03/04 04:52:26;;;;;;;34.78;3.58;;;;;;;;;;5012729;28;20029;-34
2023/03/04 04:54:53;;;;;;;33.40;4.03;;;;;;;;;;5012674;28;20037;-34
2023/03/04 04:57:19;;;;;;;42.55;4.40;;;;;;;;;;5012586;28;20088;-34
2023/03/04 04:59:47;;;;;;;31.98;4.15;;;;;;;;;;5012674;28;20110;-34
2023/03/04 05:02:14;;;;;;;36.38;4.35;;;;;;;;;;5012014;28;20091;-34
2023/03/04 05:04:41;;;;;;;26.20;3.17;;;;;;;;;;5012414;28;20353;-35
2023/03/04 05:07:08;;;;;;;37.38;3.83;;;;;;;;;;5012421;28;20026;-35
2023/03/04 05:09:35;;;;;;;29.67;4.03;;;;;;;;;;5012364;28;20204;-34
2023/03/04 05:12:02;;;;;;;25.85;2.90;;;;;;;;;;5011924;28;20522;-35
2023/03/04 05:14:29;;;;;;;23.10;3.10;;;;;;;;;;5012371;28;20475;-34
2023/03/04 05:16:56;;;;;;;52.28;5.78;;;;;;;;;;5012135;28;20191;-34
2023/03/04 05:19:23;;;;;;;50.72;6.70;;;;;;;;;;5012148;28;20115;-35
2023/03/04 05:21:50;;;;;;;45.30;5.20;;;;;;;;;;5012051;28;20030;-34
2023/03/04 05:24:17;;;;;;;24.08;3.15;;;;;;;;;;5011571;28;20085;-33
2023/03/04 05:26:44;;;;;;;19.60;2.58;;;;;;;;;;4994194;28;20212;-33
2023/03/04 05:29:11;;;;;;;43.15;5.50;;;;;;;;;;4994253;28;20030;-33
2023/03/04 05:31:38;;;;;;;36.58;3.95;;;;;;;;;;5011663;28;20048;-32
2023/03/04 05:34:05;;;;;;;36.47;3.53;;;;;;;;;;5011729;28;20034;-33
2023/03/04 05:36:32;;;;;;;22.33;2.63;;;;;;;;;;5011802;28;20026;-33
2023/03/04 05:38:59;;;;;;;23.67;2.42;;;;;;;;;;5011823;28;20567;-33
2023/03/04 05:41:26;;;;;;;23.02;2.72;;;;;;;;;;5011847;28;20034;-33
2023/03/04 05:43:53;;;;;;;29.42;2.40;;;;;;;;;;5011765;28;20507;-33
2023/03/04 05:46:24;;;;;;;26.73;2.42;;;;;;;;;;5011945;28;20030;-33
2023/03/04 05:48:51;;;;;;;12.23;1.98;;;;;;;;;;5011578;28;20092;-32
2023/03/04 05:51:19;;;;;;;15.70;1.80;;;;;;;;;;5011521;28;20058;-33
2023/03/04 05:53:46;;;;;;;25.85;2.38;;;;;;;;;;5011390;28;20101;-33
2023/03/04 05:56:14;;;;;;;15.60;2.17;;;;;;;;;;5011621;28;20018;-32
2023/03/04 05:58:41;;;;;;;15.32;2.45;;;;;;;;;;5011466;28;20475;-33
2023/03/04 06:01:08;;;;;;;23.40;2.53;;;;;;;;;;5013064;28;20120;-32
2023/03/04 06:03:35;;;;;;;29.05;4.25;;;;;;;;;;5030988;28;20029;-33
2023/03/04 06:06:02;;;;;;;26.90;2.40;;;;;;;;;;5031208;28;20517;-33
2023/03/04 06:08:29;;;;;;;24.92;2.85;;;;;;;;;;5031064;28;20040;-32
2023/03/04 06:10:57;;;;;;;22.73;2.50;;;;;;;;;;5030738;28;20030;-32
2023/03/04 06:13:24;;;;;;;11.30;1.70;;;;;;;;;;5030793;28;20052;-32
2023/03/04 06:15:55;;;;;;;18.13;1.83;;;;;;;;;;5030792;28;20083;-32
2023/03/04 06:18:23;;;;;;;13.93;1.70;;;;;;;;;;5030206;28;20068;-32
2023/03/04 06:20:50;;;;;;;25.77;1.73;;;;;;;;;;5030865;28;20021;-34
2023/03/04 06:23:17;;;;;;;14.20;1.92;;;;;;;;;;5030508;28;20037;-32
2023/03/04 06:25:44;;;;;;;33.70;2.72;;;;;;;;;;5030503;28;20053;-32
2023/03/04 06:28:11;;;;;;;18.38;1.98;;;;;;;;;;5030725;28;20025;-33
2023/03/04 06:30:38;;;;;;;19.73;1.83;;;;;;;;;;5030686;28;20057;-34
2023/03/04 06:33:05;;;;;;;16.55;2.25;;;;;;;;;;5030826;28;20088;-34
2023/03/04 06:35:32;;;;;;;48.53;3.03;;;;;;;;;;5030820;28;20065;-34
2023/03/04 06:37:59;;;;;;;18.05;1.83;;;;;;;;;;5030331;28;20096;-34
2023/03/04 06:40:26;;;;;;;15.07;2.03;;;;;;;;;;5030000;28;20030;-34
2023/03/04 06:42:53;;;;;;;10.32;1.65;;;;;;;;;;5030333;28;20030;-34
2023/03/04 06:45:19;;;;;;;18.92;2.33;;;;;;;;;;5030108;28;20040;-34
2023/03/04 06:47:46;;;;;;;20.27;1.55;;;;;;;;;;5012189;28;20037;-34
2023/03/04 06:50:14;;;;;;;16.45;1.95;;;;;;;;;;5029751;28;20029;-34
2023/03/04 06:52:41;;;;;;;20.33;3.17;;;;;;;;;;5029849;28;20072;-34
2023/03/04 06:55:08;;;;;;;46.72;5.75;;;;;;;;;;5030045;28;20045;-34
2023/03/04 06:57:35;;;;;;;29.42;4.13;;;;;;;;;;5029991;28;20029;-34
2023/03/04 07:00:03;;;;;;;21.35;2.83;;;;;;;;;;5030517;28;20095;-34
2023/03/04 07:02:30;;;;;;;14.35;1.90;;;;;;;;;;5030477;28;20033;-34
2023/03/04 07:04:57;;;;;;;12.77;1.70;;;;;;;;;;5030473;28;20033;-32
2023/03/04 07:07:26;;;;;;;11.88;2.08;;;;;;;;;;5030366;28;20036;-33
2023/03/04 07:09:53;;;;;;;9.73;1.70;;;;;;;;;;5030285;28;20095;-32
2023/03/04 07:12:20;;;;;;;18.45;1.70;;;;;;;;;;5030371;28;20030;-32
2023/03/04 07:14:47;;;;;;;18.08;2.20;;;;;;;;;;5030496;28;20087;-32
2023/03/04 07:17:13;;;;;;;28.17;2.58;;;;;;;;;;5030181;28;20025;-32
2023/03/04 07:19:40;;;;;;;21.65;2.20;;;;;;;;;;5030210;28;20041;-32
2023/03/04 07:22:07;;;;;;;20.33;2.03;;;;;;;;;;5030348;28;20033;-32
2023/03/04 07:24:34;;;;;;;26.75;3.10;;;;;;;;;;5030238;28;20148;-32
2023/03/04 07:27:01;;;;;;;28.15;3.28;;;;;;;;;;5030470;28;20033;-32
2023/03/04 07:29:28;;;;;;;20.60;2.05;;;;;;;;;;5030291;28;20026;-32
2023/03/04 07:31:55;;;;;;;16.30;2.65;;;;;;;;;;5029999;28;20095;-33
2023/03/04 07:34:23;;;;;;;20.88;2.50;;;;;;;;;;5030109;28;20029;-32
2023/03/04 07:36:49;;;;;;;15.30;2.63;;;;;;;;;;5030272;28;20533;-32
2023/03/04 07:39:16;;;;;;;20.08;2.92;;;;;;;;;;5030153;28;20036;-33
2023/03/04 07:41:43;;;;;;;21.67;2.33;;;;;;;;;;5030173;28;20040;-32
2023/03/04 07:44:12;;;;;;;19.90;2.30;;;;;;;;;;5030068;28;20037;-32
2023/03/04 07:46:39;;;;;;;45.45;4.13;;;;;;;;;;5030185;28;20151;-32
2023/03/04 07:49:07;;;;;;;16.20;2.85;;;;;;;;;;5030042;28;20037;-32
2023/03/04 07:51:34;;;;;;;28.48;3.20;;;;;;;;;;5029723;28;20044;-33
2023/03/04 07:54:01;;;;;;;20.35;2.20;;;;;;;;;;5029986;28;20488;-34
2023/03/04 07:56:30;;;;;;;58.03;5.50;;;;;;;;;;5029861;28;20112;-32
2023/03/04 07:58:58;;;;;;;28.02;2.85;;;;;;;;;;5032002;28;20026;-32
2023/03/04 08:01:28;;;;;;;36.20;3.38;;;;;;;;;;5033529;28;20111;-32
2023/03/04 08:03:55;;;;;;;23.10;2.85;;;;;;;;;;5033403;28;20034;-32
2023/03/04 08:06:23;;;;;;;17.23;1.90;;;;;;;;;;5033275;28;20096;-34
2023/03/04 08:08:55;;;;;;;15.52;2.20;;;;;;;;;;5033184;28;20025;-34
2023/03/04 08:11:22;;;;;;;23.60;2.38;;;;;;;;;;5033125;28;20546;-34
2023/03/04 08:13:49;;;;;;;17.45;2.58;;;;;;;;;;5033119;28;20041;-32
2023/03/04 08:16:17;;;;;;;14.30;2.63;;;;;;;;;;5033299;28;20369;-32
2023/03/04 08:18:46;;;;;;;14.98;2.28;;;;;;;;;;5032938;28;20048;-32
2023/03/04 08:21:14;;;;;;;17.65;2.60;;;;;;;;;;5032138;28;20087;-32
2023/03/04 08:23:42;;;;;;;8.13;2.00;;;;;;;;;;5032950;28;20586;-32
2023/03/04 08:26:10;;;;;;;12.43;1.92;;;;;;;;;;5032628;28;20057;-32
2023/03/04 08:28:37;;;;;;;11.23;1.85;;;;;;;;;;5032859;28;20403;-32
2023/03/04 08:31:04;;;;;;;14.23;2.50;;;;;;;;;;5032958;28;20063;-32
2023/03/04 08:33:31;;;;;;;18.25;3.08;;;;;;;;;;5033014;28;20117;-32
2023/03/04 08:35:58;;;;;;;21.08;2.85;;;;;;;;;;5033036;28;20024;-32
2023/03/04 08:38:26;;;;;;;13.27;2.58;;;;;;;;;;5032987;28;20080;-32
2023/03/04 08:40:53;;;;;;;10.15;2.58;;;;;;;;;;5032635;28;20041;-33
2023/03/04 08:43:20;;;;;;;21.40;2.53;;;;;;;;;;5032767;28;20022;-32
2023/03/04 08:45:48;;;;;;;10.38;2.38;;;;;;;;;;5032866;28;20048;-32
2023/03/04 08:48:15;;;;;;;16.88;2.70;;;;;;;;;;5032744;28;20029;-32
2023/03/04 08:50:43;;;;;;;18.10;2.40;;;;;;;;;;5032528;28;20037;-32
2023/03/04 08:53:11;;;;;;;11.82;2.22;;;;;;;;;;5032546;28;20140;-32
2023/03/04 08:55:39;;;;;;;14.77;2.22;;;;;;;;;;5032611;28;20071;-32
2023/03/04 08:58:06;;;;;;;9.68;2.30;;;;;;;;;;5032316;28;20025;-32
2023/03/04 09:00:34;;;;;;;11.38;2.42;;;;;;;;;;5032065;28;20037;-32
2023/03/04 09:03:03;;;;;;;9.73;2.78;;;;;;;;;;5032411;28;20033;-32
2023/03/04 09:05:30;;;;;;;12.43;2.88;;;;;;;;;;5032382;28;20044;-32
2023/03/04 09:07:57;;;;;;;15.00;2.40;;;;;;;;;;5032021;28;20092;-32
2023/03/04 09:10:25;;;;;;;16.48;2.88;;;;;;;;;;5031683;28;20030;-32
2023/03/04 09:12:52;;;;;;;15.98;3.05;;;;;;;;;;5032205;28;20029;-32
2023/03/04 09:15:19;;;;;;;13.82;3.33;;;;;;;;;;5032274;28;20108;-32
2023/03/04 09:17:46;;;;;;;9.95;2.30;;;;;;;;;;5032204;28;20033;-32
2023/03/04 09:20:13;;;;;;;23.20;3.53;;;;;;;;;;5032047;28;20028;-32
2023/03/04 09:22:40;;;;;;;14.02;3.00;;;;;;;;;;5031966;28;20029;-32
2023/03/04 09:25:07;;;;;;;15.80;2.58;;;;;;;;;;5031634;28;20111;-32
2023/03/04 09:27:34;;;;;;;14.35;2.70;;;;;;;;;;5032028;28;20040;-32
2023/03/04 09:30:01;;;;;;;11.35;2.67;;;;;;;;;;5031791;28;20051;-32
2023/03/04 09:32:28;;;;;;;33.15;4.47;;;;;;;;;;5031897;28;20119;-32
2023/03/04 09:34:55;;;;;;;12.75;2.72;;;;;;;;;;5031822;28;20471;-32
2023/03/04 09:37:22;;;;;;;14.18;2.95;;;;;;;;;;5031606;28;20075;-31
2023/03/04 09:39:50;;;;;;;13.27;3.08;;;;;;;;;;5031637;28;20026;-32
2023/03/04 09:42:24;;;;;;;13.68;2.92;;;;;;;;;;5031681;28;20080;-32
2023/03/04 09:44:52;;;;;;;15.15;3.30;;;;;;;;;;5031629;28;20029;-32
2023/03/04 09:47:20;;;;;;;15.60;3.22;;;;;;;;;;5031459;28;20072;-32
2023/03/04 09:49:54;;;;;;;19.58;2.72;;;;;;;;;;5031421;28;20064;-32
2023/03/04 09:52:21;;;;;;;29.85;3.88;;;;;;;;;;5031384;28;20092;-32
2023/03/04 09:54:59;;;;;;;19.55;3.00;;;;;;;;;;5031460;28;20108;-32
2023/03/04 09:57:49;;;;;;;16.95;3.38;;;;;;;;;;5031291;28;20109;-32
2023/03/04 10:00:21;;;;;;;21.45;3.05;;;;;;;;;;5031076;28;20443;-32
2023/03/04 10:03:03;;;;;;;25.27;4.50;;;;;;;;;;5031265;28;20060;-32
2023/03/04 10:05:31;;;;;;;24.52;3.45;;;;;;;;;;5011339;28;20026;-33
2023/03/04 10:07:59;;;;;;;17.20;3.72;;;;;;;;;;5011350;28;20061;-34
2023/03/04 10:10:30;;;;;;;25.55;4.43;;;;;;;;;;5011330;28;20476;-34
2023/03/04 10:12:58;;;;;;;21.60;3.53;;;;;;;;;;5011408;28;20112;-34
2023/03/04 10:15:28;;;;;;;19.23;3.90;;;;;;;;;;5011179;28;20432;-33
2023/03/04 10:17:58;;;;;;;20.75;3.70;;;;;;;;;;5011244;28;20030;-34
2023/03/04 10:20:28;;;;;;;18.55;3.63;;;;;;;;;;5010560;28;20117;-34
2023/03/04 10:23:02;;;;;;;18.60;3.60;;;;;;;;;;4993760;28;20116;-35
2023/03/04 10:25:31;;;;;;;20.73;3.28;;;;;;;;;;5010967;28;20073;-33
2023/03/04 10:27:58;;;;;;;16.67;3.55;;;;;;;;;;5011167;28;20056;-34
2023/03/04 10:30:40;;;;;;;22.60;3.50;;;;;;;;;;5010971;28;20040;-34
2023/03/04 10:33:30;;;;;;;34.53;4.68;;;;;;;;;;4993348;28;20399;-34
2023/03/04 10:36:05;;;;;;;53.25;6.80;;;;;;;;;;4998773;28;20399;-34
2023/03/04 10:38:36;;;;;;;31.90;4.50;;;;;;;;;;5021295;28;20049;-32
2023/03/04 10:41:12;;;;;;;30.10;4.55;;;;;;;;;;5030570;28;20029;-32
2023/03/04 10:43:41;;;;;;;79.82;7.28;;;;;;;;;;5030404;28;20036;-32
2023/03/04 10:46:11;;;;;;;30.75;4.50;;;;;;;;;;5026363;28;20055;-32
2023/03/04 10:48:40;;;;;;;22.77;3.97;;;;;;;;;;5019573;28;20029;-34
2023/03/04 10:51:25;;;;;;;20.85;3.63;;;;;;;;;;5019455;28;20045;-32
2023/03/04 10:54:00;;;;;;;52.78;7.68;;;;;;;;;;5018824;28;20499;-32
2023/03/04 10:56:30;;;;;;;52.47;6.35;;;;;;;;;;5020824;28;20116;-32
2023/03/04 10:59:15;;;;;;;32.80;4.50;;;;;;;;;;5019600;28;20018;-34
2023/03/04 11:01:42;;;;;;;29.55;3.92;;;;;;;;;;5019603;28;20376;-34
2023/03/04 11:04:28;;;;;;;31.85;5.10;;;;;;;;;;5018903;28;20061;-32
2023/03/04 11:06:55;;;;;;;26.50;4.80;;;;;;;;;;5019653;28;20124;-34
2023/03/04 11:09:24;;;;;;;50.75;7.22;;;;;;;;;;5019388;28;20040;-32
2023/03/04 11:11:52;;;;;;;31.23;4.82;;;;;;;;;;5018962;28;20505;-32
2023/03/04 11:14:29;;;;;;;23.85;4.68;;;;;;;;;;5018458;28;20026;-34
2023/03/04 11:16:58;;;;;;;38.70;5.70;;;;;;;;;;5002306;28;20045;-34
2023/03/04 11:19:29;;;;;;;29.88;5.63;;;;;;;;;;5020222;28;20233;-34
2023/03/04 11:21:57;;;;;;;39.88;6.20;;;;;;;;;;5020211;28;20038;-32
2023/03/04 11:24:26;;;;;;;41.83;5.00;;;;;;;;;;5019821;28;20145;-34
2023/03/04 11:27:02;;;;;;;29.50;5.65;;;;;;;;;;5020162;28;20033;-32
2023/03/04 11:29:43;;;;;;;30.08;4.55;;;;;;;;;;5019935;28;20025;-33
2023/03/04 11:32:13;;;;;;;33.45;6.65;;;;;;;;;;5020846;28;20029;-34
2023/03/04 11:34:40;;;;;;;42.75;7.28;;;;;;;;;;5022955;28;20048;-34
2023/03/04 11:37:12;;;;;;;34.50;6.05;;;;;;;;;;5021845;28;20030;-32
2023/03/04 11:39:46;;;;;;;47.20;7.80;;;;;;;;;;5022976;28;20061;-33
2023/03/04 11:42:28;;;;;;;33.58;5.53;;;;;;;;;;5006084;28;20508;-32
2023/03/04 11:44:55;;;;;;;49.70;8.20;;;;;;;;;;5006030;28;20372;-33
2023/03/04 11:47:44;;;;;;;38.58;6.97;;;;;;;;;;5023209;28;20447;-32
2023/03/04 11:50:16;;;;;;;32.85;6.32;;;;;;;;;;5024050;28;20037;-34
2023/03/04 11:52:43;;;;;;;37.05;7.53;;;;;;;;;;5022139;28;20029;-34
2023/03/04 11:55:12;;;;;;;39.83;6.72;;;;;;;;;;5030016;28;20398;-34
2023/03/04 11:57:54;;;;;;;54.53;8.02;;;;;;;;;;5033242;28;20038;-34
2023/03/04 12:00:37;;;;;;;38.38;6.47;;;;;;;;;;5033403;28;20659;-33
2023/03/04 12:03:07;;;;;;;37.22;6.60;;;;;;;;;;5033513;28;20333;-32
2023/03/04 12:05:34;;;;;;;51.67;8.43;;;;;;;;;;5033741;28;20513;-34
2023/03/04 12:08:01;;;;;;;88.40;10.45;;;;;;;;;;5033323;28;20025;-34
2023/03/04 12:10:40;;;;;;;53.38;7.90;;;;;;;;;;5024113;28;20392;-33
2023/03/04 12:13:29;;;;;;;57.17;8.77;;;;;;;;;;5028475;28;20534;-34
2023/03/04 12:16:05;;;;;;;39.95;7.55;;;;;;;;;;5033058;28;20103;-33
2023/03/04 12:18:44;;;;;;;47.17;6.65;;;;;;;;;;5013466;28;20029;-33
2023/03/04 12:21:27;;;;;;;78.35;9.82;;;;;;;;;;5015254;28;20035;-32
2023/03/04 12:24:12;;;;;;;48.10;7.57;;;;;;;;;;5031820;28;20068;-34
2023/03/04 12:26:57;;;;;;;52.63;7.85;;;;;;;;;;5032845;28;20407;-34
2023/03/04 12:29:24;;;;;;;53.20;7.55;;;;;;;;;;5020456;28;20435;-35
2023/03/04 12:32:02;;;;;;;61.00;8.40;;;;;;;;;;5030837;28;20597;-33
2023/03/04 12:34:33;;;;;;;104.03;11.30;;;;;;;;;;5032752;28;20112;-35
2023/03/04 12:37:00;;;;;;;96.53;11.63;;;;;;;;;;5032775;28;20022;-35
2023/03/04 12:39:33;;;;;;;71.32;9.32;;;;;;;;;;5032629;28;20037;-35
2023/03/04 12:42:16;;;;;;;78.68;10.45;;;;;;;;;;5028634;28;20041;-33
2023/03/04 12:44:48;;;;;;;95.93;10.73;;;;;;;;;;5031723;28;20399;-33
2023/03/04 12:47:18;;;;;;;71.93;7.47;;;;;;;;;;5032574;28;20860;-33
2023/03/04 12:49:51;;;;;;;72.78;9.98;;;;;;;;;;5030890;28;20029;-34
2023/03/04 12:52:27;;;;;;;62.72;8.57;;;;;;;;;;5023477;28;20084;-35
2023/03/04 12:55:01;;;;;;;90.72;11.43;;;;;;;;;;5022736;28;20379;-35
2023/03/04 12:57:32;;;;;;;76.38;9.35;;;;;;;;;;5023609;28;20482;-34
2023/03/04 13:00:06;;;;;;;67.07;8.55;;;;;;;;;;5031046;28;20033;-34
2023/03/04 13:02:36;;;;;;;181.45;16.13;;;;;;;;;;5025108;28;20032;-34
2023/03/04 13:05:24;;;;;;;76.38;8.68;;;;;;;;;;5030534;28;20120;-35
2023/03/04 13:07:59;;;;;;;49.80;7.15;;;;;;;;;;5023154;28;20707;-33
2023/03/04 13:10:26;;;;;;;70.80;7.28;;;;;;;;;;5016341;28;20033;-35
2023/03/04 13:12:55;;;;;;;70.88;8.27;;;;;;;;;;5031776;28;20073;-34
2023/03/04 13:15:23;;;;;;;78.90;7.97;;;;;;;;;;5028759;28;20029;-35
2023/03/04 13:17:51;;;;;;;76.85;8.18;;;;;;;;;;5031275;28;20076;-35
2023/03/04 13:20:18;;;;;;;66.72;7.05;;;;;;;;;;5013193;28;20121;-34
2023/03/04 13:23:05;;;;;;;65.93;8.80;;;;;;;;;;5013983;28;20029;-35
2023/03/04 13:25:37;;;;;;;112.78;13.02;;;;;;;;;;5008951;28;20049;-35
2023/03/04 13:28:11;;;;;;;106.65;13.35;;;;;;;;;;5022828;28;20037;-35
2023/03/04 13:30:39;;;;;;;90.82;10.35;;;;;;;;;;5022344;28;20045;-35
2023/03/04 13:33:09;;;;;;;67.75;7.82;;;;;;;;;;5023636;28;20029;-35
2023/03/04 13:36:00;;;;;;;88.63;9.05;;;;;;;;;;5026720;28;20057;-33
2023/03/04 13:38:27;;;;;;;107.22;10.50;;;;;;;;;;5029216;28;20091;-32
2023/03/04 13:41:00;;;;;;;109.72;10.43;;;;;;;;;;5021407;28;20037;-32
2023/03/04 13:43:29;;;;;;;88.65;8.70;;;;;;;;;;5027596;28;20052;-32
2023/03/04 13:45:56;;;;;;;69.88;8.88;;;;;;;;;;5026427;28;20395;-32
2023/03/04 13:48:36;;;;;;;73.05;8.55;;;;;;;;;;5030650;28;20506;-35
2023/03/04 13:51:03;;;;;;;63.08;8.30;;;;;;;;;;5021007;28;20057;-36
2023/03/04 13:53:39;;;;;;;81.80;8.00;;;;;;;;;;5021137;28;20025;-36
2023/03/04 13:56:18;;;;;;;62.92;7.38;;;;;;;;;;5013774;28;20395;-35
2023/03/04 13:58:45;;;;;;;79.75;8.77;;;;;;;;;;5015558;28;20091;-40
2023/03/04 14:01:30;;;;;;;79.05;9.00;;;;;;;;;;5031023;28;20021;-36
2023/03/04 14:03:58;;;;;;;79.05;8.50;;;;;;;;;;5027672;28;20093;-37
2023/03/04 14:06:26;;;;;;;72.07;7.90;;;;;;;;;;5022378;28;20116;-35
2023/03/04 14:08:54;;;;;;;78.05;7.93;;;;;;;;;;5023869;28;20025;-35
2023/03/04 14:11:30;;;;;;;86.97;8.25;;;;;;;;;;5022584;28;20041;-35
2023/03/04 14:13:58;;;;;;;66.68;7.57;;;;;;;;;;5022729;28;20076;-34
2023/03/04 14:16:27;;;;;;;77.88;8.57;;;;;;;;;;5030521;28;20495;-37
2023/03/04 14:19:09;;;;;;;64.53;7.75;;;;;;;;;;5024494;28;20480;-34
2023/03/04 14:21:36;;;;;;;75.80;7.50;;;;;;;;;;5020494;28;20048;-36
2023/03/04 14:24:07;;;;;;;88.43;9.00;;;;;;;;;;5017029;28;20057;-39
2023/03/04 14:26:35;;;;;;;98.13;9.40;;;;;;;;;;5007440;28;20049;-37
2023/03/04 14:29:02;;;;;;;69.78;9.00;;;;;;;;;;5030569;28;20515;-35
2023/03/04 14:31:31;;;;;;;89.57;8.85;;;;;;;;;;5030739;28;20041;-37
2023/03/04 14:34:01;;;;;;;96.90;9.85;;;;;;;;;;5030673;28;20025;-45
2023/03/04 14:36:32;;;;;;;73.20;8.20;;;;;;;;;;5020972;28;20042;-44
2023/03/04 14:39:01;;;;;;;63.30;8.38;;;;;;;;;;5023472;28;20037;-43
2023/03/04 14:41:34;;;;;;;62.35;7.63;;;;;;;;;;5030495;28;20072;-43